SBI7520 LHBP-HELX
Flight info
| Callsign | SBI7520 |
|---|---|
| Flight time | 3h 43m |
| Altitude | 37000 |
| Route | LHBP N0448F370 FAHA2L FAHAZ BAREB TUVAR ODLET VABEK UL603 OLOTA RUGAS UN128 FSK UG18 MES UL609 RDS UL995 VANZA N134 KOMEZ M855 RASDA A16 CVO A727 LXR LX811 LX814 LX815 RW20 HELX |
| Aircraft | B738/M-SDGIWZ/S |
Departure
| Time | 2026-04-25 04:21 |
|---|---|
| Airport | Budapest Liszt Ferenc International Airport (LHBP) |
Arrival
| Time | 2026-04-25 08:04 |
|---|---|
| Airport | Luxor International Airport (HELX) |
| Time | Latitude | Longitude | Altitude | Speed | Heading |
|---|---|---|---|---|---|
| 2026-04-25 04:06 | 47.43553 | 19.26029 | 504 ft | 0 kts | 268° |
| 2026-04-25 04:14 | 47.43560 | 19.26007 | 504 ft | 7 kts | 306° |
| 2026-04-25 04:15 | 47.43630 | 19.26015 | 504 ft | 16 kts | 39° |
| 2026-04-25 04:15 | 47.43606 | 19.26183 | 504 ft | 14 kts | 122° |
| 2026-04-25 04:15 | 47.43672 | 19.26317 | 504 ft | 23 kts | 38° |
| 2026-04-25 04:15 | 47.43728 | 19.26503 | 504 ft | 20 kts | 120° |
| 2026-04-25 04:16 | 47.43632 | 19.26666 | 504 ft | 22 kts | 132° |
| 2026-04-25 04:16 | 47.43514 | 19.26856 | 504 ft | 28 kts | 132° |
| 2026-04-25 04:16 | 47.43389 | 19.27059 | 504 ft | 25 kts | 132° |
| 2026-04-25 04:16 | 47.43280 | 19.27234 | 504 ft | 22 kts | 133° |
| 2026-04-25 04:17 | 47.43193 | 19.27375 | 504 ft | 6 kts | 133° |
| 2026-04-25 04:17 | 47.43151 | 19.27443 | 504 ft | 21 kts | 132° |
| 2026-04-25 04:17 | 47.43024 | 19.27648 | 504 ft | 28 kts | 132° |
| 2026-04-25 04:17 | 47.42891 | 19.27864 | 504 ft | 28 kts | 132° |
| 2026-04-25 04:18 | 47.42763 | 19.28072 | 504 ft | 27 kts | 132° |
| 2026-04-25 04:18 | 47.42627 | 19.28290 | 504 ft | 29 kts | 132° |
| 2026-04-25 04:18 | 47.42488 | 19.28516 | 504 ft | 29 kts | 132° |
| 2026-04-25 04:18 | 47.42348 | 19.28741 | 504 ft | 29 kts | 132° |
| 2026-04-25 04:19 | 47.42212 | 19.28958 | 504 ft | 27 kts | 133° |
| 2026-04-25 04:19 | 47.42149 | 19.29178 | 504 ft | 21 kts | 77° |
| 2026-04-25 04:19 | 47.42232 | 19.29314 | 504 ft | 16 kts | 17° |
| 2026-04-25 04:19 | 47.42350 | 19.29297 | 504 ft | 26 kts | 320° |
| 2026-04-25 04:20 | 47.42658 | 19.28803 | 504 ft | 102 kts | 312° |
| 2026-04-25 04:20 | 47.43281 | 19.27795 | 505 ft | 162 kts | 312° |
| 2026-04-25 04:20 | 47.44134 | 19.26415 | 677 ft | 195 kts | 312° |
| 2026-04-25 04:20 | 47.45093 | 19.24857 | 1061 ft | 219 kts | 309° |
| 2026-04-25 04:21 | 47.45759 | 19.22822 | 1935 ft | 221 kts | 284° |
| 2026-04-25 04:21 | 47.46231 | 19.20672 | 2645 ft | 229 kts | 297° |
| 2026-04-25 04:21 | 47.47094 | 19.18731 | 3439 ft | 231 kts | 308° |
| 2026-04-25 04:21 | 47.48128 | 19.16903 | 4206 ft | 235 kts | 309° |
| 2026-04-25 04:22 | 47.48982 | 19.14790 | 4620 ft | 253 kts | 284° |
| 2026-04-25 04:22 | 47.48904 | 19.12196 | 5357 ft | 258 kts | 250° |
| 2026-04-25 04:22 | 47.48111 | 19.09847 | 6146 ft | 261 kts | 240° |
| 2026-04-25 04:22 | 47.46901 | 19.07814 | 6781 ft | 271 kts | 213° |
| 2026-04-25 04:23 | 47.45219 | 19.06655 | 7671 ft | 269 kts | 203° |
| 2026-04-25 04:23 | 47.43471 | 19.05553 | 8308 ft | 276 kts | 206° |
| 2026-04-25 04:23 | 47.41739 | 19.04379 | 9099 ft | 277 kts | 206° |
| 2026-04-25 04:23 | 47.39986 | 19.03188 | 9791 ft | 280 kts | 206° |
| 2026-04-25 04:24 | 47.38227 | 19.01987 | 10440 ft | 286 kts | 206° |
| 2026-04-25 04:24 | 47.36356 | 19.00703 | 10559 ft | 310 kts | 206° |
| 2026-04-25 04:24 | 47.34349 | 18.99325 | 10855 ft | 327 kts | 206° |
| 2026-04-25 04:24 | 47.32261 | 18.97892 | 11319 ft | 337 kts | 206° |
| 2026-04-25 04:25 | 47.30111 | 18.96423 | 11950 ft | 342 kts | 206° |
| 2026-04-25 04:25 | 47.27954 | 18.94948 | 12616 ft | 345 kts | 206° |
| 2026-04-25 04:25 | 47.25796 | 18.93474 | 13293 ft | 347 kts | 206° |
| 2026-04-25 04:25 | 47.23608 | 18.91979 | 13912 ft | 350 kts | 207° |
| 2026-04-25 04:26 | 47.21381 | 18.90460 | 14550 ft | 352 kts | 207° |
| 2026-04-25 04:26 | 47.19186 | 18.88963 | 15124 ft | 355 kts | 207° |
| 2026-04-25 04:26 | 47.16923 | 18.87421 | 15646 ft | 358 kts | 207° |
| 2026-04-25 04:26 | 47.14682 | 18.85896 | 16158 ft | 360 kts | 208° |
| 2026-04-25 04:27 | 47.12364 | 18.84485 | 16621 ft | 367 kts | 199° |
| 2026-04-25 04:27 | 47.09786 | 18.84122 | 17061 ft | 379 kts | 176° |
| 2026-04-25 04:27 | 47.07281 | 18.85295 | 17491 ft | 392 kts | 154° |
| 2026-04-25 04:27 | 47.05051 | 18.87622 | 17951 ft | 397 kts | 145° |
| 2026-04-25 04:28 | 47.02830 | 18.90144 | 18207 ft | 405 kts | 146° |
| 2026-04-25 04:28 | 47.00565 | 18.92564 | 18517 ft | 410 kts | 147° |
| 2026-04-25 04:28 | 46.98240 | 18.95007 | 18851 ft | 415 kts | 146° |
| 2026-04-25 04:28 | 46.95873 | 18.97485 | 19208 ft | 419 kts | 147° |
| 2026-04-25 04:29 | 46.93278 | 18.99412 | 19553 ft | 422 kts | 163° |
| 2026-04-25 04:29 | 46.90443 | 19.00389 | 20069 ft | 421 kts | 168° |
| 2026-04-25 04:29 | 46.87566 | 19.01194 | 20350 ft | 426 kts | 171° |
| 2026-04-25 04:29 | 46.84593 | 19.01373 | 20671 ft | 430 kts | 186° |
| 2026-04-25 04:30 | 46.81703 | 19.00349 | 21050 ft | 430 kts | 200° |
| 2026-04-25 04:30 | 46.78899 | 18.98869 | 21285 ft | 435 kts | 201° |
| 2026-04-25 04:30 | 46.76054 | 18.97349 | 21603 ft | 438 kts | 202° |
| 2026-04-25 04:30 | 46.73186 | 18.95802 | 21907 ft | 441 kts | 202° |
| 2026-04-25 04:31 | 46.70322 | 18.94232 | 22177 ft | 444 kts | 203° |
| 2026-04-25 04:31 | 46.67438 | 18.92636 | 22471 ft | 446 kts | 203° |
| 2026-04-25 04:31 | 46.64539 | 18.91025 | 22731 ft | 449 kts | 203° |
| 2026-04-25 04:31 | 46.61642 | 18.89413 | 22997 ft | 452 kts | 203° |
| 2026-04-25 04:32 | 46.58712 | 18.87778 | 23259 ft | 454 kts | 204° |
| 2026-04-25 04:32 | 46.55770 | 18.86135 | 23510 ft | 457 kts | 204° |
| 2026-04-25 04:32 | 46.52802 | 18.84477 | 23755 ft | 459 kts | 204° |
| 2026-04-25 04:32 | 46.49786 | 18.82793 | 23998 ft | 462 kts | 204° |
| 2026-04-25 04:33 | 46.46792 | 18.81121 | 24227 ft | 464 kts | 204° |
| 2026-04-25 04:33 | 46.43796 | 18.79450 | 24456 ft | 466 kts | 204° |
| 2026-04-25 04:33 | 46.40785 | 18.77770 | 24683 ft | 468 kts | 204° |
| 2026-04-25 04:33 | 46.37760 | 18.76085 | 24899 ft | 471 kts | 204° |
| 2026-04-25 04:34 | 46.34676 | 18.74369 | 25130 ft | 472 kts | 204° |
| 2026-04-25 04:34 | 46.31622 | 18.72671 | 25339 ft | 474 kts | 204° |
| 2026-04-25 04:34 | 46.28556 | 18.70968 | 25553 ft | 476 kts | 204° |
| 2026-04-25 04:34 | 46.25480 | 18.69262 | 25754 ft | 478 kts | 204° |
| 2026-04-25 04:35 | 46.22351 | 18.67528 | 25962 ft | 480 kts | 204° |
| 2026-04-25 04:35 | 46.19264 | 18.65819 | 26157 ft | 482 kts | 205° |
| 2026-04-25 04:35 | 46.16108 | 18.64074 | 26351 ft | 484 kts | 205° |
| 2026-04-25 04:35 | 46.13011 | 18.62364 | 26540 ft | 485 kts | 205° |
| 2026-04-25 04:36 | 46.09862 | 18.60628 | 26723 ft | 487 kts | 205° |
| 2026-04-25 04:36 | 46.06670 | 18.58869 | 26911 ft | 489 kts | 205° |
| 2026-04-25 04:36 | 46.03519 | 18.57135 | 27093 ft | 490 kts | 205° |
| 2026-04-25 04:36 | 46.00348 | 18.55393 | 27278 ft | 491 kts | 205° |
| 2026-04-25 04:37 | 45.97139 | 18.53631 | 27442 ft | 493 kts | 205° |
| 2026-04-25 04:37 | 45.93975 | 18.51897 | 27615 ft | 495 kts | 205° |
| 2026-04-25 04:37 | 45.90753 | 18.50133 | 27780 ft | 496 kts | 205° |
| 2026-04-25 04:37 | 45.87534 | 18.48373 | 27921 ft | 498 kts | 205° |
| 2026-04-25 04:38 | 45.84302 | 18.46643 | 28041 ft | 501 kts | 202° |
| 2026-04-25 04:38 | 45.80899 | 18.45394 | 28155 ft | 507 kts | 192° |
| 2026-04-25 04:38 | 45.77413 | 18.45002 | 28287 ft | 511 kts | 180° |
| 2026-04-25 04:38 | 45.73865 | 18.45622 | 28410 ft | 513 kts | 167° |
| 2026-04-25 04:39 | 45.70505 | 18.47102 | 28571 ft | 512 kts | 158° |
| 2026-04-25 04:39 | 45.67279 | 18.49342 | 28656 ft | 511 kts | 146° |
| 2026-04-25 04:39 | 45.64417 | 18.52229 | 28814 ft | 508 kts | 139° |
| 2026-04-25 04:39 | 45.61659 | 18.55333 | 28938 ft | 509 kts | 139° |
| 2026-04-25 04:40 | 45.58844 | 18.58439 | 29031 ft | 512 kts | 140° |
| 2026-04-25 04:40 | 45.56004 | 18.61496 | 29168 ft | 513 kts | 140° |
| 2026-04-25 04:40 | 45.53171 | 18.64533 | 29277 ft | 514 kts | 140° |
| 2026-04-25 04:40 | 45.50306 | 18.67615 | 29389 ft | 515 kts | 140° |
| 2026-04-25 04:41 | 45.47477 | 18.70659 | 29496 ft | 516 kts | 140° |
| 2026-04-25 04:41 | 45.44606 | 18.73742 | 29617 ft | 517 kts | 140° |
| 2026-04-25 04:41 | 45.41728 | 18.76825 | 29822 ft | 516 kts | 140° |
| 2026-04-25 04:41 | 45.38869 | 18.79885 | 29981 ft | 516 kts | 140° |
| 2026-04-25 04:42 | 45.36017 | 18.82934 | 30119 ft | 516 kts | 140° |
| 2026-04-25 04:42 | 45.33147 | 18.85999 | 30286 ft | 516 kts | 140° |
| 2026-04-25 04:42 | 45.30314 | 18.89020 | 30412 ft | 517 kts | 140° |
| 2026-04-25 04:42 | 45.27425 | 18.92096 | 30566 ft | 517 kts | 140° |
| 2026-04-25 04:43 | 45.24560 | 18.95143 | 30695 ft | 517 kts | 140° |
| 2026-04-25 04:43 | 45.21701 | 18.98180 | 30909 ft | 515 kts | 140° |
| 2026-04-25 04:43 | 45.18838 | 19.01216 | 31253 ft | 511 kts | 140° |
| 2026-04-25 04:43 | 45.15997 | 19.04097 | 31458 ft | 511 kts | 145° |
| 2026-04-25 04:44 | 45.12906 | 19.06579 | 31698 ft | 510 kts | 153° |
| 2026-04-25 04:44 | 45.09649 | 19.08390 | 31904 ft | 509 kts | 163° |
| 2026-04-25 04:44 | 45.06180 | 19.09523 | 32095 ft | 507 kts | 169° |
| 2026-04-25 04:44 | 45.02723 | 19.10397 | 32265 ft | 507 kts | 170° |
| 2026-04-25 04:45 | 44.99297 | 19.11307 | 32386 ft | 507 kts | 168° |
| 2026-04-25 04:45 | 44.95866 | 19.12270 | 32550 ft | 506 kts | 168° |
| 2026-04-25 04:45 | 44.92406 | 19.13245 | 32722 ft | 505 kts | 168° |
| 2026-04-25 04:45 | 44.88988 | 19.14194 | 32919 ft | 502 kts | 169° |
| 2026-04-25 04:46 | 44.85585 | 19.15127 | 33128 ft | 500 kts | 169° |
| 2026-04-25 04:46 | 44.82159 | 19.16067 | 33280 ft | 498 kts | 169° |
| 2026-04-25 04:46 | 44.78784 | 19.16997 | 33403 ft | 498 kts | 169° |
| 2026-04-25 04:46 | 44.75424 | 19.17918 | 33512 ft | 497 kts | 169° |
| 2026-04-25 04:47 | 44.72018 | 19.18843 | 33684 ft | 495 kts | 169° |
| 2026-04-25 04:47 | 44.68672 | 19.19745 | 33891 ft | 492 kts | 170° |
| 2026-04-25 04:47 | 44.65356 | 19.20629 | 34076 ft | 490 kts | 170° |
| 2026-04-25 04:48 | 44.58690 | 19.22387 | 34276 ft | 489 kts | 170° |
| 2026-04-25 04:48 | 44.52040 | 19.24154 | 34463 ft | 488 kts | 170° |
| 2026-04-25 04:49 | 44.45369 | 19.25932 | 34636 ft | 488 kts | 170° |
| 2026-04-25 04:49 | 44.38705 | 19.27704 | 34803 ft | 488 kts | 170° |
| 2026-04-25 04:50 | 44.32101 | 19.29459 | 34971 ft | 487 kts | 170° |
| 2026-04-25 04:50 | 44.25443 | 19.31225 | 35129 ft | 487 kts | 170° |
| 2026-04-25 04:51 | 44.18826 | 19.32976 | 35273 ft | 487 kts | 170° |
| 2026-04-25 04:51 | 44.12205 | 19.34724 | 35454 ft | 486 kts | 170° |
| 2026-04-25 04:52 | 44.05543 | 19.36479 | 35590 ft | 487 kts | 170° |
| 2026-04-25 04:52 | 43.99012 | 19.38481 | 35732 ft | 487 kts | 161° |
| 2026-04-25 04:52 | 43.95919 | 19.40322 | 35810 ft | 485 kts | 149° |
| 2026-04-25 04:53 | 43.93161 | 19.42951 | 35863 ft | 483 kts | 137° |
| 2026-04-25 04:53 | 43.90710 | 19.46085 | 35976 ft | 480 kts | 133° |
| 2026-04-25 04:53 | 43.88311 | 19.49304 | 36031 ft | 480 kts | 134° |
| 2026-04-25 04:54 | 43.83430 | 19.55624 | 36136 ft | 480 kts | 134° |
| 2026-04-25 04:54 | 43.78581 | 19.61908 | 36243 ft | 480 kts | 134° |
| 2026-04-25 04:55 | 43.73732 | 19.68212 | 36348 ft | 480 kts | 135° |
| 2026-04-25 04:55 | 43.68868 | 19.74525 | 36450 ft | 480 kts | 135° |
| 2026-04-25 04:56 | 43.64044 | 19.80776 | 36554 ft | 479 kts | 135° |
| 2026-04-25 04:56 | 43.59195 | 19.87048 | 36655 ft | 479 kts | 135° |
| 2026-04-25 04:57 | 43.54352 | 19.93299 | 36756 ft | 478 kts | 135° |
| 2026-04-25 04:57 | 43.49491 | 19.99559 | 36857 ft | 478 kts | 135° |
| 2026-04-25 04:58 | 43.44667 | 20.05757 | 36958 ft | 477 kts | 135° |
| 2026-04-25 04:58 | 43.39840 | 20.11946 | 37101 ft | 476 kts | 135° |
| 2026-04-25 04:59 | 43.35012 | 20.18124 | 37101 ft | 478 kts | 135° |
| 2026-04-25 04:59 | 43.30142 | 20.24340 | 37102 ft | 480 kts | 135° |
| 2026-04-25 05:00 | 43.25272 | 20.30543 | 37101 ft | 481 kts | 135° |
| 2026-04-25 05:00 | 43.20361 | 20.36782 | 37100 ft | 483 kts | 135° |
| 2026-04-25 05:01 | 43.15461 | 20.42993 | 37101 ft | 483 kts | 135° |
| 2026-04-25 05:01 | 43.10522 | 20.49239 | 37101 ft | 482 kts | 135° |
| 2026-04-25 05:02 | 43.05630 | 20.55411 | 37101 ft | 482 kts | 135° |
| 2026-04-25 05:02 | 43.00705 | 20.61611 | 37100 ft | 482 kts | 135° |
| 2026-04-25 05:03 | 42.95868 | 20.67864 | 37101 ft | 480 kts | 133° |
| 2026-04-25 05:03 | 42.91089 | 20.74177 | 37101 ft | 478 kts | 134° |
| 2026-04-25 05:04 | 42.86343 | 20.80415 | 37099 ft | 477 kts | 133° |
| 2026-04-25 05:04 | 42.81543 | 20.86677 | 37100 ft | 477 kts | 134° |
| 2026-04-25 05:05 | 42.76765 | 20.92895 | 37103 ft | 478 kts | 135° |
| 2026-04-25 05:05 | 42.71968 | 20.99118 | 37100 ft | 477 kts | 136° |
| 2026-04-25 05:06 | 42.67231 | 21.05263 | 37101 ft | 471 kts | 136° |
| 2026-04-25 05:06 | 42.62507 | 21.11366 | 37102 ft | 465 kts | 137° |
| 2026-04-25 05:07 | 42.57881 | 21.17322 | 37101 ft | 462 kts | 137° |
| 2026-04-25 05:07 | 42.53234 | 21.23350 | 37101 ft | 463 kts | 137° |
| 2026-04-25 05:08 | 42.48546 | 21.29335 | 37102 ft | 464 kts | 138° |
| 2026-04-25 05:08 | 42.43846 | 21.35221 | 37102 ft | 464 kts | 138° |
| 2026-04-25 05:09 | 42.39169 | 21.41172 | 37101 ft | 464 kts | 137° |
| 2026-04-25 05:09 | 42.34501 | 21.47152 | 37102 ft | 464 kts | 137° |
| 2026-04-25 05:10 | 42.29804 | 21.53132 | 37101 ft | 465 kts | 138° |
| 2026-04-25 05:10 | 42.25064 | 21.59040 | 37102 ft | 465 kts | 138° |
| 2026-04-25 05:11 | 42.20363 | 21.65007 | 37102 ft | 464 kts | 136° |
| 2026-04-25 05:11 | 42.15832 | 21.71149 | 37101 ft | 463 kts | 136° |
| 2026-04-25 05:12 | 42.08962 | 21.80266 | 37101 ft | 463 kts | 137° |
| 2026-04-25 05:12 | 42.04384 | 21.86296 | 37101 ft | 464 kts | 137° |
| 2026-04-25 05:13 | 41.99764 | 21.92339 | 37103 ft | 465 kts | 137° |
| 2026-04-25 05:13 | 41.95192 | 21.98431 | 37099 ft | 463 kts | 136° |
| 2026-04-25 05:14 | 41.90631 | 22.04510 | 37100 ft | 463 kts | 136° |
| 2026-04-25 05:15 | 41.83723 | 22.13537 | 37098 ft | 464 kts | 137° |
| 2026-04-25 05:15 | 41.79097 | 22.19494 | 37101 ft | 464 kts | 137° |
| 2026-04-25 05:16 | 41.74476 | 22.25483 | 37102 ft | 464 kts | 137° |
| 2026-04-25 05:16 | 41.69832 | 22.31497 | 37101 ft | 463 kts | 137° |
| 2026-04-25 05:17 | 41.65245 | 22.37462 | 37102 ft | 464 kts | 136° |
| 2026-04-25 05:17 | 41.60618 | 22.43437 | 37103 ft | 465 kts | 137° |
| 2026-04-25 05:18 | 41.55976 | 22.49402 | 37098 ft | 463 kts | 136° |
| 2026-04-25 05:18 | 41.51365 | 22.55368 | 37089 ft | 464 kts | 137° |
| 2026-04-25 05:19 | 41.46754 | 22.61367 | 37078 ft | 464 kts | 136° |
| 2026-04-25 05:19 | 41.42163 | 22.67377 | 37075 ft | 463 kts | 137° |
| 2026-04-25 05:20 | 41.37539 | 22.73312 | 37075 ft | 464 kts | 138° |
| 2026-04-25 05:20 | 41.32750 | 22.79006 | 37073 ft | 462 kts | 145° |
| 2026-04-25 05:21 | 41.27446 | 22.83734 | 37074 ft | 462 kts | 149° |
| 2026-04-25 05:21 | 41.22123 | 22.88431 | 37073 ft | 461 kts | 148° |
| 2026-04-25 05:22 | 41.16788 | 22.93155 | 37075 ft | 460 kts | 149° |
| 2026-04-25 05:22 | 41.11494 | 22.97790 | 37074 ft | 460 kts | 149° |
| 2026-04-25 05:23 | 41.06371 | 23.02796 | 37074 ft | 459 kts | 143° |
| 2026-04-25 05:23 | 41.01498 | 23.08199 | 37074 ft | 454 kts | 144° |
| 2026-04-25 05:24 | 40.96651 | 23.13397 | 37074 ft | 451 kts | 145° |
| 2026-04-25 05:24 | 40.91798 | 23.18615 | 37074 ft | 450 kts | 145° |
| 2026-04-25 05:25 | 40.86999 | 23.23765 | 37074 ft | 450 kts | 145° |
| 2026-04-25 05:25 | 40.82167 | 23.28936 | 37074 ft | 451 kts | 145° |
| 2026-04-25 05:26 | 40.77286 | 23.34152 | 37074 ft | 451 kts | 145° |
| 2026-04-25 05:26 | 40.72448 | 23.39311 | 37074 ft | 450 kts | 145° |
| 2026-04-25 05:27 | 40.67580 | 23.44491 | 37074 ft | 450 kts | 145° |
| 2026-04-25 05:27 | 40.62714 | 23.49660 | 37074 ft | 451 kts | 145° |
| 2026-04-25 05:28 | 40.57874 | 23.54791 | 37074 ft | 450 kts | 145° |
| 2026-04-25 05:28 | 40.52988 | 23.59961 | 37074 ft | 450 kts | 145° |
| 2026-04-25 05:29 | 40.48136 | 23.65085 | 37073 ft | 450 kts | 146° |
| 2026-04-25 05:29 | 40.43264 | 23.70220 | 37074 ft | 450 kts | 146° |
| 2026-04-25 05:30 | 40.38411 | 23.75326 | 37074 ft | 450 kts | 146° |
| 2026-04-25 05:30 | 40.33551 | 23.80429 | 37066 ft | 450 kts | 146° |
| 2026-04-25 05:31 | 40.28689 | 23.85523 | 37054 ft | 449 kts | 146° |
| 2026-04-25 05:31 | 40.23818 | 23.90618 | 37043 ft | 449 kts | 146° |
| 2026-04-25 05:32 | 40.18939 | 23.95712 | 37031 ft | 449 kts | 146° |
| 2026-04-25 05:32 | 40.14082 | 24.00773 | 37020 ft | 449 kts | 146° |
| 2026-04-25 05:33 | 40.09189 | 24.05862 | 37020 ft | 449 kts | 146° |
| 2026-04-25 05:33 | 40.04319 | 24.10917 | 37019 ft | 450 kts | 146° |
| 2026-04-25 05:34 | 39.99459 | 24.15953 | 37020 ft | 450 kts | 146° |
| 2026-04-25 05:34 | 39.94576 | 24.21002 | 37029 ft | 449 kts | 146° |
| 2026-04-25 05:35 | 39.89673 | 24.26064 | 37037 ft | 449 kts | 146° |
| 2026-04-25 05:35 | 39.84805 | 24.31078 | 37044 ft | 450 kts | 146° |
| 2026-04-25 05:36 | 39.79894 | 24.36129 | 37047 ft | 449 kts | 146° |
| 2026-04-25 05:36 | 39.75028 | 24.41123 | 37047 ft | 450 kts | 146° |
| 2026-04-25 05:37 | 39.70114 | 24.46158 | 37047 ft | 450 kts | 146° |
| 2026-04-25 05:37 | 39.65224 | 24.51158 | 37046 ft | 450 kts | 146° |
| 2026-04-25 05:38 | 39.60343 | 24.56140 | 37047 ft | 450 kts | 146° |
| 2026-04-25 05:38 | 39.55422 | 24.61154 | 37047 ft | 449 kts | 146° |
| 2026-04-25 05:39 | 39.50526 | 24.66132 | 37047 ft | 449 kts | 146° |
| 2026-04-25 05:39 | 39.45638 | 24.71092 | 37047 ft | 449 kts | 146° |
| 2026-04-25 05:40 | 39.40744 | 24.76046 | 37047 ft | 449 kts | 146° |
| 2026-04-25 05:40 | 39.35809 | 24.81033 | 37047 ft | 449 kts | 146° |
| 2026-04-25 05:41 | 39.30924 | 24.85962 | 37047 ft | 449 kts | 146° |
| 2026-04-25 05:41 | 39.26012 | 24.90907 | 37047 ft | 449 kts | 146° |
| 2026-04-25 05:42 | 39.21084 | 24.95860 | 37047 ft | 449 kts | 146° |
| 2026-04-25 05:42 | 39.16196 | 25.00767 | 37047 ft | 450 kts | 146° |
| 2026-04-25 05:43 | 39.11256 | 25.05717 | 37047 ft | 453 kts | 146° |
| 2026-04-25 05:43 | 39.06278 | 25.10696 | 37047 ft | 455 kts | 145° |
| 2026-04-25 05:44 | 39.01288 | 25.15679 | 37047 ft | 457 kts | 145° |
| 2026-04-25 05:44 | 38.96246 | 25.20705 | 37047 ft | 458 kts | 145° |
| 2026-04-25 05:45 | 38.91243 | 25.25684 | 37034 ft | 457 kts | 145° |
| 2026-04-25 05:45 | 38.86242 | 25.30650 | 37010 ft | 455 kts | 145° |
| 2026-04-25 05:46 | 38.81266 | 25.35581 | 36985 ft | 455 kts | 145° |
| 2026-04-25 05:46 | 38.76250 | 25.40544 | 36970 ft | 455 kts | 145° |
| 2026-04-25 05:47 | 38.71264 | 25.45468 | 36966 ft | 455 kts | 145° |
| 2026-04-25 05:47 | 38.66282 | 25.50379 | 36966 ft | 455 kts | 145° |
| 2026-04-25 05:48 | 38.61261 | 25.55320 | 36966 ft | 455 kts | 145° |
| 2026-04-25 05:48 | 38.56266 | 25.60226 | 36966 ft | 455 kts | 145° |
| 2026-04-25 05:49 | 38.51289 | 25.65106 | 36966 ft | 455 kts | 146° |
| 2026-04-25 05:49 | 38.46279 | 25.70008 | 36966 ft | 454 kts | 146° |
| 2026-04-25 05:50 | 38.41261 | 25.74913 | 36966 ft | 455 kts | 146° |
| 2026-04-25 05:50 | 38.36250 | 25.79808 | 36966 ft | 455 kts | 146° |
| 2026-04-25 05:51 | 38.31246 | 25.84678 | 36966 ft | 455 kts | 146° |
| 2026-04-25 05:51 | 38.26246 | 25.89534 | 36966 ft | 455 kts | 146° |
| 2026-04-25 05:52 | 38.21375 | 25.94621 | 36966 ft | 456 kts | 141° |
| 2026-04-25 05:52 | 38.16642 | 26.00005 | 36966 ft | 456 kts | 141° |
| 2026-04-25 05:53 | 38.11894 | 26.05272 | 36966 ft | 456 kts | 141° |
| 2026-04-25 05:53 | 38.07140 | 26.10544 | 36966 ft | 456 kts | 141° |
| 2026-04-25 05:54 | 38.02374 | 26.15811 | 36966 ft | 456 kts | 142° |
| 2026-04-25 05:54 | 37.95213 | 26.23699 | 36966 ft | 456 kts | 142° |
| 2026-04-25 05:55 | 37.90425 | 26.28959 | 36965 ft | 456 kts | 142° |
| 2026-04-25 05:55 | 37.85649 | 26.34195 | 36959 ft | 456 kts | 142° |
| 2026-04-25 05:56 | 37.80832 | 26.39451 | 36949 ft | 456 kts | 142° |
| 2026-04-25 05:56 | 37.76070 | 26.44636 | 36940 ft | 456 kts | 142° |
| 2026-04-25 05:57 | 37.71259 | 26.49866 | 36942 ft | 456 kts | 142° |
| 2026-04-25 05:57 | 37.66473 | 26.55063 | 36939 ft | 456 kts | 142° |
| 2026-04-25 05:58 | 37.61675 | 26.60279 | 36939 ft | 456 kts | 142° |
| 2026-04-25 05:58 | 37.56873 | 26.65488 | 36938 ft | 456 kts | 142° |
| 2026-04-25 05:59 | 37.52085 | 26.70671 | 36939 ft | 456 kts | 142° |
| 2026-04-25 05:59 | 37.47278 | 26.75866 | 36939 ft | 456 kts | 142° |
| 2026-04-25 06:00 | 37.42500 | 26.81020 | 36939 ft | 456 kts | 142° |
| 2026-04-25 06:00 | 37.37721 | 26.86277 | 36939 ft | 457 kts | 140° |
| 2026-04-25 06:01 | 37.33166 | 26.91825 | 36939 ft | 457 kts | 139° |
| 2026-04-25 06:01 | 37.28593 | 26.97311 | 36939 ft | 456 kts | 139° |
| 2026-04-25 06:02 | 37.24037 | 27.02753 | 36939 ft | 455 kts | 139° |
| 2026-04-25 06:02 | 37.19442 | 27.08230 | 36938 ft | 454 kts | 140° |
| 2026-04-25 06:03 | 37.14879 | 27.13654 | 36938 ft | 453 kts | 140° |
| 2026-04-25 06:03 | 37.10324 | 27.19057 | 36939 ft | 453 kts | 140° |
| 2026-04-25 06:04 | 37.05757 | 27.24465 | 36939 ft | 454 kts | 139° |
| 2026-04-25 06:04 | 37.01174 | 27.29880 | 36939 ft | 454 kts | 139° |
| 2026-04-25 06:05 | 36.96604 | 27.35272 | 36939 ft | 454 kts | 139° |
| 2026-04-25 06:05 | 36.92030 | 27.40658 | 36939 ft | 454 kts | 139° |
| 2026-04-25 06:06 | 36.87458 | 27.46033 | 36938 ft | 454 kts | 139° |
| 2026-04-25 06:06 | 36.82867 | 27.51420 | 36939 ft | 454 kts | 139° |
| 2026-04-25 06:07 | 36.78268 | 27.56807 | 36938 ft | 454 kts | 139° |
| 2026-04-25 06:07 | 36.73682 | 27.62169 | 36937 ft | 454 kts | 139° |
| 2026-04-25 06:08 | 36.69080 | 27.67542 | 36931 ft | 453 kts | 139° |
| 2026-04-25 06:08 | 36.64508 | 27.72871 | 36925 ft | 453 kts | 139° |
| 2026-04-25 06:09 | 36.59898 | 27.78234 | 36918 ft | 454 kts | 140° |
| 2026-04-25 06:09 | 36.55298 | 27.83577 | 36912 ft | 454 kts | 139° |
| 2026-04-25 06:10 | 36.50702 | 27.88905 | 36912 ft | 454 kts | 139° |
| 2026-04-25 06:10 | 36.46099 | 27.94232 | 36912 ft | 454 kts | 139° |
| 2026-04-25 06:11 | 36.41500 | 27.99546 | 36912 ft | 454 kts | 140° |
| 2026-04-25 06:11 | 36.36890 | 28.04864 | 36912 ft | 454 kts | 139° |
| 2026-04-25 06:12 | 36.32346 | 28.10201 | 36911 ft | 455 kts | 136° |
| 2026-04-25 06:12 | 36.28103 | 28.16008 | 36912 ft | 455 kts | 134° |
| 2026-04-25 06:13 | 36.23846 | 28.21764 | 36911 ft | 455 kts | 135° |
| 2026-04-25 06:14 | 36.17419 | 28.30380 | 36912 ft | 455 kts | 135° |
| 2026-04-25 06:14 | 36.13124 | 28.36118 | 36912 ft | 455 kts | 135° |
| 2026-04-25 06:15 | 36.08833 | 28.41839 | 36912 ft | 455 kts | 135° |
| 2026-04-25 06:15 | 36.04557 | 28.47516 | 36912 ft | 455 kts | 135° |
| 2026-04-25 06:16 | 36.00241 | 28.53233 | 36912 ft | 455 kts | 135° |
| 2026-04-25 06:16 | 35.95931 | 28.58931 | 36914 ft | 455 kts | 135° |
| 2026-04-25 06:17 | 35.91622 | 28.64617 | 36921 ft | 455 kts | 135° |
| 2026-04-25 06:17 | 35.87313 | 28.70248 | 36926 ft | 454 kts | 137° |
| 2026-04-25 06:18 | 35.82747 | 28.75600 | 36932 ft | 453 kts | 139° |
| 2026-04-25 06:18 | 35.78177 | 28.80952 | 36930 ft | 454 kts | 139° |
| 2026-04-25 06:19 | 35.73642 | 28.86288 | 36925 ft | 452 kts | 139° |
| 2026-04-25 06:19 | 35.69133 | 28.91581 | 36925 ft | 447 kts | 139° |
| 2026-04-25 06:20 | 35.64661 | 28.96828 | 36930 ft | 443 kts | 139° |
| 2026-04-25 06:20 | 35.60239 | 29.02010 | 36936 ft | 440 kts | 140° |
| 2026-04-25 06:21 | 35.55859 | 29.07134 | 36939 ft | 437 kts | 140° |
| 2026-04-25 06:21 | 35.51446 | 29.12289 | 36939 ft | 438 kts | 139° |
| 2026-04-25 06:22 | 35.47041 | 29.17427 | 36939 ft | 439 kts | 139° |
| 2026-04-25 06:22 | 35.42640 | 29.22554 | 36939 ft | 439 kts | 140° |
| 2026-04-25 06:23 | 35.38237 | 29.27674 | 36939 ft | 439 kts | 139° |
| 2026-04-25 06:23 | 35.33805 | 29.32821 | 36939 ft | 438 kts | 140° |
| 2026-04-25 06:24 | 35.29387 | 29.37943 | 36939 ft | 439 kts | 140° |
| 2026-04-25 06:24 | 35.24980 | 29.43044 | 36939 ft | 439 kts | 140° |
| 2026-04-25 06:25 | 35.20550 | 29.48163 | 36939 ft | 438 kts | 140° |
| 2026-04-25 06:25 | 35.16150 | 29.53241 | 36939 ft | 438 kts | 140° |
| 2026-04-25 06:26 | 35.11728 | 29.58335 | 36939 ft | 438 kts | 139° |
| 2026-04-25 06:26 | 35.07291 | 29.63440 | 36939 ft | 439 kts | 140° |
| 2026-04-25 06:27 | 35.02860 | 29.68528 | 36938 ft | 438 kts | 140° |
| 2026-04-25 06:27 | 34.98425 | 29.73612 | 36938 ft | 441 kts | 142° |
| 2026-04-25 06:28 | 34.93985 | 29.78760 | 36940 ft | 445 kts | 142° |
| 2026-04-25 06:28 | 34.89526 | 29.83988 | 36947 ft | 449 kts | 143° |
| 2026-04-25 06:29 | 34.85010 | 29.89250 | 36954 ft | 453 kts | 144° |
| 2026-04-25 06:29 | 34.80444 | 29.94568 | 36960 ft | 458 kts | 143° |
| 2026-04-25 06:30 | 34.75974 | 30.00094 | 36963 ft | 468 kts | 136° |
| 2026-04-25 06:30 | 34.72143 | 30.06632 | 36959 ft | 477 kts | 130° |
| 2026-04-25 06:31 | 34.68363 | 30.13265 | 36948 ft | 479 kts | 131° |
| 2026-04-25 06:31 | 34.64572 | 30.19883 | 36942 ft | 478 kts | 131° |
| 2026-04-25 06:32 | 34.60821 | 30.26473 | 36939 ft | 478 kts | 131° |
| 2026-04-25 06:32 | 34.57056 | 30.33080 | 36938 ft | 478 kts | 130° |
| 2026-04-25 06:33 | 34.53281 | 30.39700 | 36939 ft | 478 kts | 130° |
| 2026-04-25 06:33 | 34.49498 | 30.46328 | 36938 ft | 478 kts | 130° |
| 2026-04-25 06:34 | 34.45735 | 30.52907 | 36939 ft | 478 kts | 130° |
| 2026-04-25 06:34 | 34.41958 | 30.59503 | 36939 ft | 478 kts | 131° |
| 2026-04-25 06:35 | 34.38159 | 30.66125 | 36939 ft | 478 kts | 131° |
| 2026-04-25 06:35 | 34.34398 | 30.72669 | 36939 ft | 477 kts | 131° |
| 2026-04-25 06:36 | 34.30612 | 30.79241 | 36939 ft | 478 kts | 131° |
| 2026-04-25 06:36 | 34.26436 | 30.85372 | 36938 ft | 464 kts | 146° |
| 2026-04-25 06:36 | 34.23887 | 30.87631 | 36939 ft | 451 kts | 158° |
| 2026-04-25 06:37 | 34.21077 | 30.89223 | 36941 ft | 440 kts | 168° |
| 2026-04-25 06:37 | 34.15262 | 30.90706 | 36943 ft | 422 kts | 185° |
| 2026-04-25 06:38 | 34.09440 | 30.90936 | 36938 ft | 422 kts | 185° |
| 2026-04-25 06:38 | 34.03611 | 30.91299 | 36939 ft | 422 kts | 185° |
| 2026-04-25 06:39 | 33.97755 | 30.91630 | 36939 ft | 422 kts | 185° |
| 2026-04-25 06:39 | 33.91897 | 30.91926 | 36938 ft | 421 kts | 186° |
| 2026-04-25 06:40 | 33.86109 | 30.92129 | 36939 ft | 421 kts | 186° |
| 2026-04-25 06:40 | 33.80271 | 30.92351 | 36939 ft | 421 kts | 186° |
| 2026-04-25 06:41 | 33.74432 | 30.92572 | 36939 ft | 420 kts | 186° |
| 2026-04-25 06:41 | 33.68634 | 30.92792 | 36938 ft | 420 kts | 186° |
| 2026-04-25 06:42 | 33.62809 | 30.93011 | 36939 ft | 421 kts | 186° |
| 2026-04-25 06:42 | 33.56967 | 30.93233 | 36938 ft | 420 kts | 186° |
| 2026-04-25 06:43 | 33.51164 | 30.93453 | 36967 ft | 419 kts | 186° |
| 2026-04-25 06:43 | 33.45329 | 30.93672 | 36965 ft | 421 kts | 186° |
| 2026-04-25 06:44 | 33.39493 | 30.93893 | 36966 ft | 421 kts | 186° |
| 2026-04-25 06:44 | 33.33658 | 30.94112 | 36966 ft | 421 kts | 186° |
| 2026-04-25 06:45 | 33.27822 | 30.94332 | 36966 ft | 421 kts | 186° |
| 2026-04-25 06:45 | 33.22010 | 30.94550 | 36965 ft | 420 kts | 186° |
| 2026-04-25 06:46 | 33.16196 | 30.94768 | 36966 ft | 420 kts | 186° |
| 2026-04-25 06:46 | 33.10376 | 30.94986 | 36966 ft | 421 kts | 186° |
| 2026-04-25 06:47 | 33.04523 | 30.95542 | 36966 ft | 423 kts | 184° |
| 2026-04-25 06:47 | 32.98756 | 30.96249 | 36966 ft | 418 kts | 187° |
| 2026-04-25 06:48 | 32.93004 | 30.96894 | 36965 ft | 415 kts | 187° |
| 2026-04-25 06:48 | 32.87260 | 30.97541 | 36966 ft | 416 kts | 187° |
| 2026-04-25 06:49 | 32.81516 | 30.98185 | 36965 ft | 417 kts | 187° |
| 2026-04-25 06:49 | 32.75750 | 30.98829 | 36950 ft | 418 kts | 187° |
| 2026-04-25 06:50 | 32.69988 | 30.99470 | 36926 ft | 419 kts | 187° |
| 2026-04-25 06:50 | 32.64209 | 31.00115 | 36902 ft | 418 kts | 187° |
| 2026-04-25 06:51 | 32.58488 | 31.00752 | 36896 ft | 417 kts | 187° |
| 2026-04-25 06:51 | 32.52722 | 31.01390 | 36891 ft | 417 kts | 187° |
| 2026-04-25 06:52 | 32.46940 | 31.02030 | 36884 ft | 418 kts | 187° |
| 2026-04-25 06:52 | 32.41192 | 31.02667 | 36885 ft | 418 kts | 187° |
| 2026-04-25 06:53 | 32.35402 | 31.03305 | 36885 ft | 420 kts | 187° |
| 2026-04-25 06:53 | 32.29599 | 31.03947 | 36885 ft | 419 kts | 187° |
| 2026-04-25 06:54 | 32.23838 | 31.04583 | 36884 ft | 419 kts | 187° |
| 2026-04-25 06:54 | 32.18040 | 31.05220 | 36884 ft | 420 kts | 187° |
| 2026-04-25 06:55 | 32.12222 | 31.05859 | 36885 ft | 421 kts | 187° |
| 2026-04-25 06:55 | 32.06431 | 31.06496 | 36884 ft | 421 kts | 187° |
| 2026-04-25 06:56 | 32.00622 | 31.07130 | 36886 ft | 421 kts | 187° |
| 2026-04-25 06:56 | 31.94803 | 31.07756 | 36885 ft | 421 kts | 187° |
| 2026-04-25 06:57 | 31.88989 | 31.08382 | 36885 ft | 421 kts | 187° |
| 2026-04-25 06:57 | 31.83206 | 31.09003 | 36886 ft | 421 kts | 187° |
| 2026-04-25 06:58 | 31.77386 | 31.09627 | 36885 ft | 422 kts | 187° |
| 2026-04-25 06:58 | 31.71566 | 31.10251 | 36885 ft | 422 kts | 187° |
| 2026-04-25 06:59 | 31.65736 | 31.10875 | 36885 ft | 423 kts | 187° |
| 2026-04-25 06:59 | 31.59883 | 31.11502 | 36884 ft | 422 kts | 187° |
| 2026-04-25 07:00 | 31.54036 | 31.12127 | 36884 ft | 422 kts | 187° |
| 2026-04-25 07:00 | 31.48179 | 31.13030 | 36885 ft | 432 kts | 182° |
| 2026-04-25 07:01 | 31.42291 | 31.14218 | 36884 ft | 430 kts | 183° |
| 2026-04-25 07:01 | 31.36446 | 31.15317 | 36884 ft | 429 kts | 183° |
| 2026-04-25 07:02 | 31.30564 | 31.16426 | 36885 ft | 430 kts | 183° |
| 2026-04-25 07:02 | 31.24639 | 31.17538 | 36885 ft | 432 kts | 183° |
| 2026-04-25 07:03 | 31.18737 | 31.18643 | 36884 ft | 431 kts | 183° |
| 2026-04-25 07:03 | 31.12864 | 31.19739 | 36885 ft | 431 kts | 183° |
| 2026-04-25 07:04 | 31.06934 | 31.20842 | 36885 ft | 432 kts | 183° |
| 2026-04-25 07:04 | 31.01007 | 31.21944 | 36884 ft | 432 kts | 183° |
| 2026-04-25 07:05 | 30.95076 | 31.23044 | 36885 ft | 434 kts | 182° |
| 2026-04-25 07:05 | 30.89110 | 31.24148 | 36885 ft | 437 kts | 181° |
| 2026-04-25 07:06 | 30.83152 | 31.25252 | 36885 ft | 438 kts | 181° |
| 2026-04-25 07:06 | 30.77155 | 31.26363 | 36885 ft | 437 kts | 181° |
| 2026-04-25 07:07 | 30.71184 | 31.27465 | 36885 ft | 437 kts | 181° |
| 2026-04-25 07:07 | 30.65200 | 31.28569 | 36884 ft | 437 kts | 181° |
| 2026-04-25 07:08 | 30.59195 | 31.29676 | 36885 ft | 437 kts | 181° |
| 2026-04-25 07:08 | 30.53212 | 31.30776 | 36885 ft | 437 kts | 181° |
| 2026-04-25 07:09 | 30.47250 | 31.31872 | 36884 ft | 437 kts | 181° |
| 2026-04-25 07:09 | 30.41267 | 31.32972 | 36885 ft | 437 kts | 181° |
| 2026-04-25 07:10 | 30.35253 | 31.34077 | 36885 ft | 437 kts | 181° |
| 2026-04-25 07:10 | 30.29298 | 31.35169 | 36885 ft | 437 kts | 181° |
| 2026-04-25 07:11 | 30.23261 | 31.36276 | 36884 ft | 437 kts | 181° |
| 2026-04-25 07:11 | 30.17284 | 31.37371 | 36885 ft | 436 kts | 181° |
| 2026-04-25 07:12 | 30.11323 | 31.38460 | 36886 ft | 436 kts | 181° |
| 2026-04-25 07:12 | 30.05343 | 31.40042 | 36886 ft | 448 kts | 173° |
| 2026-04-25 07:12 | 30.02367 | 31.41100 | 36885 ft | 448 kts | 173° |
| 2026-04-25 07:13 | 29.96411 | 31.43098 | 36884 ft | 448 kts | 174° |
| 2026-04-25 07:13 | 29.90465 | 31.45067 | 36885 ft | 448 kts | 174° |
| 2026-04-25 07:14 | 29.84471 | 31.47058 | 36884 ft | 447 kts | 174° |
| 2026-04-25 07:14 | 29.78533 | 31.49023 | 36885 ft | 447 kts | 174° |
| 2026-04-25 07:15 | 29.72582 | 31.50989 | 36885 ft | 447 kts | 174° |
| 2026-04-25 07:15 | 29.66657 | 31.52941 | 36885 ft | 447 kts | 174° |
| 2026-04-25 07:16 | 29.60686 | 31.54894 | 36885 ft | 447 kts | 174° |
| 2026-04-25 07:16 | 29.54734 | 31.56841 | 36885 ft | 447 kts | 174° |
| 2026-04-25 07:17 | 29.48763 | 31.58793 | 36885 ft | 447 kts | 174° |
| 2026-04-25 07:17 | 29.42831 | 31.60729 | 36885 ft | 446 kts | 174° |
| 2026-04-25 07:18 | 29.36896 | 31.62663 | 36885 ft | 446 kts | 174° |
| 2026-04-25 07:18 | 29.30929 | 31.64605 | 36884 ft | 447 kts | 174° |
| 2026-04-25 07:19 | 29.24957 | 31.66549 | 36884 ft | 445 kts | 175° |
| 2026-04-25 07:19 | 29.19049 | 31.68466 | 36885 ft | 445 kts | 175° |
| 2026-04-25 07:20 | 29.13115 | 31.70389 | 36884 ft | 446 kts | 175° |
| 2026-04-25 07:20 | 29.07141 | 31.72325 | 36885 ft | 447 kts | 174° |
| 2026-04-25 07:21 | 29.01179 | 31.74252 | 36885 ft | 450 kts | 173° |
| 2026-04-25 07:21 | 28.95137 | 31.76198 | 36885 ft | 451 kts | 172° |
| 2026-04-25 07:22 | 28.89138 | 31.78104 | 36885 ft | 451 kts | 172° |
| 2026-04-25 07:22 | 28.83121 | 31.80017 | 36885 ft | 450 kts | 172° |
| 2026-04-25 07:23 | 28.77109 | 31.81926 | 36885 ft | 450 kts | 172° |
| 2026-04-25 07:23 | 28.71079 | 31.83838 | 36885 ft | 451 kts | 172° |
| 2026-04-25 07:24 | 28.65080 | 31.85738 | 36885 ft | 451 kts | 172° |
| 2026-04-25 07:24 | 28.59054 | 31.87645 | 36885 ft | 451 kts | 172° |
| 2026-04-25 07:25 | 28.53040 | 31.89545 | 36885 ft | 451 kts | 172° |
| 2026-04-25 07:25 | 28.47022 | 31.91444 | 36885 ft | 451 kts | 172° |
| 2026-04-25 07:26 | 28.41007 | 31.93341 | 36885 ft | 450 kts | 172° |
| 2026-04-25 07:26 | 28.34994 | 31.95234 | 36885 ft | 450 kts | 172° |
| 2026-04-25 07:27 | 28.29017 | 31.97114 | 36885 ft | 450 kts | 172° |
| 2026-04-25 07:27 | 28.22993 | 31.99006 | 36885 ft | 450 kts | 172° |
| 2026-04-25 07:28 | 28.16996 | 32.00888 | 36885 ft | 450 kts | 172° |
| 2026-04-25 07:28 | 28.10980 | 32.02773 | 36885 ft | 450 kts | 172° |
| 2026-04-25 07:29 | 28.04979 | 32.04652 | 36885 ft | 450 kts | 172° |
| 2026-04-25 07:29 | 27.98964 | 32.06554 | 36885 ft | 451 kts | 172° |
| 2026-04-25 07:30 | 27.92939 | 32.08493 | 36885 ft | 450 kts | 172° |
| 2026-04-25 07:30 | 27.86939 | 32.10412 | 36885 ft | 450 kts | 172° |
| 2026-04-25 07:31 | 27.80910 | 32.12338 | 36885 ft | 450 kts | 172° |
| 2026-04-25 07:31 | 27.74935 | 32.14244 | 36885 ft | 450 kts | 172° |
| 2026-04-25 07:32 | 27.68910 | 32.16164 | 36885 ft | 450 kts | 172° |
| 2026-04-25 07:32 | 27.62916 | 32.18072 | 36885 ft | 450 kts | 172° |
| 2026-04-25 07:33 | 27.56903 | 32.19983 | 36885 ft | 450 kts | 172° |
| 2026-04-25 07:33 | 27.50890 | 32.21892 | 36885 ft | 450 kts | 172° |
| 2026-04-25 07:34 | 27.44873 | 32.23801 | 36885 ft | 450 kts | 172° |
| 2026-04-25 07:34 | 27.38893 | 32.25696 | 36885 ft | 450 kts | 172° |
| 2026-04-25 07:35 | 27.32896 | 32.27594 | 36887 ft | 450 kts | 172° |
| 2026-04-25 07:35 | 27.26854 | 32.29503 | 36892 ft | 450 kts | 172° |
| 2026-04-25 07:36 | 27.20859 | 32.31398 | 36766 ft | 448 kts | 172° |
| 2026-04-25 07:36 | 27.17870 | 32.32344 | 36166 ft | 447 kts | 172° |
| 2026-04-25 07:36 | 27.14896 | 32.33283 | 35590 ft | 444 kts | 172° |
| 2026-04-25 07:37 | 27.11979 | 32.34204 | 35073 ft | 440 kts | 172° |
| 2026-04-25 07:37 | 27.09045 | 32.35130 | 34537 ft | 437 kts | 172° |
| 2026-04-25 07:37 | 27.06131 | 32.36048 | 34003 ft | 433 kts | 172° |
| 2026-04-25 07:37 | 27.03265 | 32.36950 | 33476 ft | 430 kts | 172° |
| 2026-04-25 07:38 | 27.00409 | 32.37849 | 32950 ft | 427 kts | 171° |
| 2026-04-25 07:38 | 26.97588 | 32.38736 | 32404 ft | 425 kts | 171° |
| 2026-04-25 07:38 | 26.94748 | 32.39628 | 31857 ft | 422 kts | 170° |
| 2026-04-25 07:38 | 26.91939 | 32.40510 | 31329 ft | 419 kts | 170° |
| 2026-04-25 07:39 | 26.89191 | 32.41373 | 30815 ft | 415 kts | 169° |
| 2026-04-25 07:39 | 26.86433 | 32.42239 | 30297 ft | 412 kts | 169° |
| 2026-04-25 07:39 | 26.83672 | 32.43104 | 29779 ft | 408 kts | 169° |
| 2026-04-25 07:39 | 26.80960 | 32.43954 | 29267 ft | 405 kts | 169° |
| 2026-04-25 07:40 | 26.78273 | 32.44796 | 28760 ft | 402 kts | 169° |
| 2026-04-25 07:40 | 26.75621 | 32.45626 | 28258 ft | 398 kts | 169° |
| 2026-04-25 07:40 | 26.72967 | 32.46457 | 27756 ft | 395 kts | 169° |
| 2026-04-25 07:40 | 26.70360 | 32.47272 | 27260 ft | 392 kts | 169° |
| 2026-04-25 07:41 | 26.67734 | 32.48093 | 26760 ft | 389 kts | 169° |
| 2026-04-25 07:41 | 26.65168 | 32.48895 | 26271 ft | 386 kts | 168° |
| 2026-04-25 07:41 | 26.62618 | 32.49692 | 25785 ft | 382 kts | 168° |
| 2026-04-25 07:41 | 26.60078 | 32.50485 | 25301 ft | 379 kts | 168° |
| 2026-04-25 07:42 | 26.57555 | 32.51273 | 24819 ft | 376 kts | 168° |
| 2026-04-25 07:42 | 26.55056 | 32.52052 | 24340 ft | 373 kts | 168° |
| 2026-04-25 07:42 | 26.52556 | 32.52832 | 23860 ft | 370 kts | 168° |
| 2026-04-25 07:42 | 26.50112 | 32.53593 | 23391 ft | 367 kts | 168° |
| 2026-04-25 07:43 | 26.47687 | 32.54349 | 22925 ft | 364 kts | 168° |
| 2026-04-25 07:43 | 26.45263 | 32.55104 | 22459 ft | 361 kts | 168° |
| 2026-04-25 07:43 | 26.42877 | 32.55847 | 22000 ft | 358 kts | 168° |
| 2026-04-25 07:43 | 26.40485 | 32.56591 | 21532 ft | 355 kts | 168° |
| 2026-04-25 07:44 | 26.38140 | 32.57320 | 21080 ft | 352 kts | 168° |
| 2026-04-25 07:44 | 26.35771 | 32.58057 | 20623 ft | 349 kts | 168° |
| 2026-04-25 07:44 | 26.33440 | 32.58781 | 20174 ft | 346 kts | 167° |
| 2026-04-25 07:44 | 26.31144 | 32.59494 | 19731 ft | 344 kts | 167° |
| 2026-04-25 07:45 | 26.28853 | 32.60206 | 19287 ft | 341 kts | 167° |
| 2026-04-25 07:45 | 26.26594 | 32.60907 | 18850 ft | 338 kts | 167° |
| 2026-04-25 07:45 | 26.24353 | 32.61602 | 18417 ft | 335 kts | 167° |
| 2026-04-25 07:45 | 26.22134 | 32.62290 | 17991 ft | 333 kts | 167° |
| 2026-04-25 07:46 | 26.19930 | 32.62974 | 17591 ft | 329 kts | 167° |
| 2026-04-25 07:46 | 26.17725 | 32.63657 | 17121 ft | 328 kts | 167° |
| 2026-04-25 07:46 | 26.15549 | 32.64331 | 16771 ft | 323 kts | 167° |
| 2026-04-25 07:46 | 26.13404 | 32.64995 | 16528 ft | 322 kts | 167° |
| 2026-04-25 07:47 | 26.11231 | 32.65667 | 16279 ft | 323 kts | 167° |
| 2026-04-25 07:47 | 26.09076 | 32.66333 | 16031 ft | 324 kts | 167° |
| 2026-04-25 07:47 | 26.06916 | 32.67002 | 15780 ft | 323 kts | 167° |
| 2026-04-25 07:47 | 26.04755 | 32.67670 | 15528 ft | 321 kts | 167° |
| 2026-04-25 07:48 | 26.02633 | 32.68326 | 15279 ft | 319 kts | 167° |
| 2026-04-25 07:48 | 26.00494 | 32.68986 | 15027 ft | 318 kts | 167° |
| 2026-04-25 07:48 | 25.98357 | 32.69647 | 14775 ft | 317 kts | 167° |
| 2026-04-25 07:48 | 25.96260 | 32.70294 | 14527 ft | 316 kts | 167° |
| 2026-04-25 07:49 | 25.94149 | 32.70946 | 14255 ft | 312 kts | 167° |
| 2026-04-25 07:49 | 25.92069 | 32.71587 | 13782 ft | 312 kts | 167° |
| 2026-04-25 07:49 | 25.89985 | 32.72229 | 13226 ft | 314 kts | 166° |
| 2026-04-25 07:49 | 25.87888 | 32.72876 | 12657 ft | 317 kts | 166° |
| 2026-04-25 07:50 | 25.85745 | 32.73536 | 12196 ft | 314 kts | 166° |
| 2026-04-25 07:50 | 25.83703 | 32.74167 | 11963 ft | 306 kts | 166° |
| 2026-04-25 07:50 | 25.81651 | 32.74798 | 11533 ft | 304 kts | 166° |
| 2026-04-25 07:50 | 25.79705 | 32.75393 | 11163 ft | 301 kts | 168° |
| 2026-04-25 07:51 | 25.77672 | 32.75576 | 10768 ft | 294 kts | 192° |
| 2026-04-25 07:51 | 25.75845 | 32.74788 | 10717 ft | 274 kts | 214° |
| 2026-04-25 07:51 | 25.74455 | 32.73446 | 10606 ft | 256 kts | 233° |
| 2026-04-25 07:51 | 25.73678 | 32.71764 | 10502 ft | 239 kts | 256° |
| 2026-04-25 07:52 | 25.73479 | 32.70015 | 10379 ft | 226 kts | 271° |
| 2026-04-25 07:52 | 25.73745 | 32.68315 | 10056 ft | 223 kts | 291° |
| 2026-04-25 07:52 | 25.74500 | 32.66846 | 9748 ft | 220 kts | 307° |
| 2026-04-25 07:52 | 25.75579 | 32.65698 | 9591 ft | 206 kts | 324° |
| 2026-04-25 07:53 | 25.76832 | 32.65002 | 9204 ft | 205 kts | 341° |
| 2026-04-25 07:53 | 25.78231 | 32.64743 | 8841 ft | 202 kts | 357° |
| 2026-04-25 07:53 | 25.79604 | 32.64948 | 8414 ft | 204 kts | 22° |
| 2026-04-25 07:53 | 25.80800 | 32.65776 | 8060 ft | 199 kts | 31° |
| 2026-04-25 07:54 | 25.82060 | 32.66362 | 7612 ft | 199 kts | 14° |
| 2026-04-25 07:54 | 25.83379 | 32.66771 | 7233 ft | 196 kts | 9° |
| 2026-04-25 07:54 | 25.84693 | 32.66656 | 6805 ft | 191 kts | 336° |
| 2026-04-25 07:54 | 25.85856 | 32.66006 | 6531 ft | 187 kts | 326° |
| 2026-04-25 07:55 | 25.86922 | 32.65161 | 6302 ft | 188 kts | 320° |
| 2026-04-25 07:55 | 25.87921 | 32.64251 | 6126 ft | 187 kts | 319° |
| 2026-04-25 07:55 | 25.88917 | 32.63309 | 6046 ft | 187 kts | 320° |
| 2026-04-25 07:55 | 25.90082 | 32.62707 | 5972 ft | 191 kts | 352° |
| 2026-04-25 07:56 | 25.91405 | 32.62888 | 5803 ft | 196 kts | 21° |
| 2026-04-25 07:56 | 25.92483 | 32.63762 | 5637 ft | 194 kts | 52° |
| 2026-04-25 07:56 | 25.92996 | 32.65152 | 5445 ft | 196 kts | 85° |
| 2026-04-25 07:56 | 25.92794 | 32.66633 | 5233 ft | 195 kts | 116° |
| 2026-04-25 07:57 | 25.91956 | 32.67771 | 5028 ft | 192 kts | 147° |
| 2026-04-25 07:57 | 25.90723 | 32.68262 | 4814 ft | 189 kts | 181° |
| 2026-04-25 07:57 | 25.89430 | 32.68193 | 4623 ft | 189 kts | 179° |
| 2026-04-25 07:57 | 25.88227 | 32.68706 | 4416 ft | 190 kts | 135° |
| 2026-04-25 07:58 | 25.87575 | 32.69962 | 4257 ft | 193 kts | 113° |
| 2026-04-25 07:58 | 25.87046 | 32.71334 | 4011 ft | 191 kts | 114° |
| 2026-04-25 07:58 | 25.86524 | 32.72677 | 3805 ft | 189 kts | 114° |
| 2026-04-25 07:58 | 25.86007 | 32.74032 | 3607 ft | 189 kts | 113° |
| 2026-04-25 07:59 | 25.85500 | 32.75363 | 3408 ft | 189 kts | 113° |
| 2026-04-25 07:59 | 25.84961 | 32.76693 | 3199 ft | 188 kts | 122° |
| 2026-04-25 07:59 | 25.84000 | 32.77623 | 3006 ft | 184 kts | 160° |
| 2026-04-25 07:59 | 25.82757 | 32.77745 | 2839 ft | 182 kts | 197° |
| 2026-04-25 08:00 | 25.81584 | 32.77273 | 2696 ft | 176 kts | 201° |
| 2026-04-25 08:00 | 25.80474 | 32.76820 | 2528 ft | 169 kts | 202° |
| 2026-04-25 08:00 | 25.79387 | 32.76336 | 2402 ft | 166 kts | 204° |
| 2026-04-25 08:00 | 25.78322 | 32.75847 | 2236 ft | 166 kts | 204° |
| 2026-04-25 08:01 | 25.77251 | 32.75351 | 2082 ft | 166 kts | 204° |
| 2026-04-25 08:01 | 25.76202 | 32.74864 | 1973 ft | 164 kts | 204° |
| 2026-04-25 08:01 | 25.75157 | 32.74380 | 1745 ft | 160 kts | 204° |
| 2026-04-25 08:01 | 25.74136 | 32.73900 | 1530 ft | 159 kts | 205° |
| 2026-04-25 08:02 | 25.73119 | 32.73417 | 1316 ft | 159 kts | 204° |
| 2026-04-25 08:02 | 25.72088 | 32.72950 | 1127 ft | 158 kts | 202° |
| 2026-04-25 08:02 | 25.71086 | 32.72510 | 931 ft | 157 kts | 203° |
| 2026-04-25 08:02 | 25.70088 | 32.72043 | 681 ft | 157 kts | 205° |
| 2026-04-25 08:03 | 25.69067 | 32.71563 | 460 ft | 158 kts | 204° |
| 2026-04-25 08:03 | 25.68059 | 32.71088 | 309 ft | 150 kts | 204° |
| 2026-04-25 08:03 | 25.67255 | 32.70705 | 302 ft | 94 kts | 204° |
| 2026-04-25 08:03 | 25.66801 | 32.70500 | 302 ft | 59 kts | 201° |
| 2026-04-25 08:04 | 25.66547 | 32.70390 | 302 ft | 33 kts | 202° |
| 2026-04-25 08:04 | 25.66480 | 32.70293 | 302 ft | 14 kts | 286° |
| 2026-04-25 08:04 | 25.66541 | 32.70217 | 302 ft | 15 kts | 359° |
| 2026-04-25 08:04 | 25.66674 | 32.70271 | 302 ft | 25 kts | 23° |
| 2026-04-25 08:05 | 25.66855 | 32.70356 | 302 ft | 23 kts | 23° |
| 2026-04-25 08:05 | 25.66976 | 32.70392 | 302 ft | 12 kts | 328° |
| 2026-04-25 08:05 | 25.67019 | 32.70312 | 302 ft | 12 kts | 296° |
| 2026-04-25 08:05 | 25.67064 | 32.70292 | 302 ft | 8 kts | 21° |
| 2026-04-25 08:06 | 25.67123 | 32.70323 | 302 ft | 10 kts | 26° |
| 2026-04-25 08:06 | 25.67154 | 32.70323 | 302 ft | 4 kts | 307° |
| 2026-04-25 08:06 | 25.67168 | 32.70289 | 302 ft | 0 kts | 292° |
| 2026-04-25 08:06 | 25.67169 | 32.70286 | 302 ft | 0 kts | 298° |